Time,TemperatureF,DewpointF,PressureIn,WindDirection,WindDirectionDegrees,WindSpeedMPH,WindSpeedGustMPH,Humidity,HourlyPrecipIn,Conditions,Clouds,dailyrainin,SoftwareType,DateUTC
2013-03-09 00:00:00,33.8,25.7,30.33,WSW,239,8.0,8.0,72,0.00,,,0.01,Wunderground v.1.15,2013-03-09 05:00:00,
2013-03-09 00:05:00,33.8,25.7,30.34,WSW,251,7.0,8.0,72,0.00,,,0.00,Wunderground v.1.15,2013-03-09 05:05:00,
2013-03-09 00:10:00,33.5,25.8,30.34,South,188,6.0,6.0,73,0.00,,,0.00,Wunderground v.1.15,2013-03-09 05:10:00,
2013-03-09 00:15:00,33.4,25.7,30.34,South,183,3.0,6.0,73,0.00,,,0.00,Wunderground v.1.15,2013-03-09 05:15:00,
2013-03-09 00:20:00,33.3,25.6,30.34,SSW,211,2.0,2.0,73,0.00,,,0.00,Wunderground v.1.15,2013-03-09 05:20:00,
2013-03-09 00:30:00,33.0,25.6,30.34,SW,226,4.0,5.0,74,0.00,,,0.00,Wunderground v.1.15,2013-03-09 05:30:00,
2013-03-09 00:40:00,32.7,25.6,30.35,SW,235,3.0,4.0,75,0.00,,,0.00,Wunderground v.1.15,2013-03-09 05:40:00,
2013-03-09 00:50:00,32.4,25.7,30.35,SW,234,4.0,4.0,76,0.00,,,0.00,Wunderground v.1.15,2013-03-09 05:50:00,
2013-03-09 01:00:00,32.3,25.6,30.35,SW,229,6.0,6.0,76,0.00,,,0.00,Wunderground v.1.15,2013-03-09 06:00:00,
2013-03-09 01:05:00,32.3,25.6,30.34,SSW,212,6.0,6.0,76,0.00,,,0.00,Wunderground v.1.15,2013-03-09 06:05:00,
2013-03-09 01:15:00,32.4,25.7,30.35,SW,219,7.0,10.0,76,0.00,,,0.00,Wunderground v.1.15,2013-03-09 06:15:00,
2013-03-09 01:20:00,32.5,25.5,30.35,West,260,7.0,9.0,75,0.00,,,0.00,Wunderground v.1.15,2013-03-09 06:20:00,
2013-03-09 01:30:00,32.5,25.8,30.35,West,265,7.0,7.0,76,0.00,,,0.00,Wunderground v.1.15,2013-03-09 06:30:00,
2013-03-09 01:40:00,32.1,25.4,30.35,SW,217,6.0,6.0,76,0.00,,,0.00,Wunderground v.1.15,2013-03-09 06:40:00,
2013-03-09 01:50:00,31.8,25.4,30.35,WNW,293,6.0,6.0,77,0.00,,,0.00,Wunderground v.1.15,2013-03-09 06:50:00,
2013-03-09 01:55:00,31.9,25.5,30.35,WSW,251,8.0,8.0,77,0.00,,,0.00,Wunderground v.1.15,2013-03-09 06:55:00,
2013-03-09 02:05:00,31.9,25.5,30.35,WSW,241,8.0,13.0,77,0.00,,,0.00,Wunderground v.1.15,2013-03-09 07:05:00,
2013-03-09 02:15:00,31.7,25.3,30.34,SSW,208,5.0,7.0,77,0.00,,,0.00,Wunderground v.1.15,2013-03-09 07:15:00,
2013-03-09 02:25:00,31.3,25.2,30.34,West,260,3.0,5.0,78,0.00,,,0.00,Wunderground v.1.15,2013-03-09 07:25:00,
2013-03-09 02:35:00,31.2,25.1,30.33,SSW,210,4.0,5.0,78,0.00,,,0.00,Wunderground v.1.15,2013-03-09 07:35:00,
2013-03-09 02:45:00,31.0,24.9,30.33,SW,223,2.0,5.0,78,0.00,,,0.00,Wunderground v.1.15,2013-03-09 07:45:00,
2013-03-09 02:55:00,31.2,25.1,30.33,SW,232,4.0,9.0,78,0.00,,,0.00,Wunderground v.1.15,2013-03-09 07:55:00,
2013-03-09 03:05:00,31.6,25.2,30.33,SW,223,6.0,9.0,77,0.00,,,0.00,Wunderground v.1.15,2013-03-09 08:05:00,
2013-03-09 03:15:00,31.6,25.2,30.32,WSW,239,5.0,6.0,77,0.00,,,0.00,Wunderground v.1.15,2013-03-09 08:15:00,
2013-03-09 03:25:00,31.4,25.0,30.32,WNW,287,1.0,3.0,77,0.00,,,0.00,Wunderground v.1.15,2013-03-09 08:25:00,
2013-03-09 03:35:00,30.8,24.4,30.32,ENE,69,0.0,2.0,77,0.00,,,0.00,Wunderground v.1.15,2013-03-09 08:35:00,
2013-03-09 03:40:00,30.4,24.4,30.32,East,83,0.0,1.0,78,0.00,,,0.00,Wunderground v.1.15,2013-03-09 08:40:00,
2013-03-09 03:50:00,30.0,24.3,30.32,North,354,0.0,1.0,79,0.00,,,0.00,Wunderground v.1.15,2013-03-09 08:50:00,
2013-03-09 04:00:00,29.9,24.5,30.33,WSW,240,0.0,0.0,80,0.00,,,0.00,Wunderground v.1.15,2013-03-09 09:00:00,
2013-03-09 04:05:00,29.8,24.4,30.33,WSW,240,1.0,1.0,80,0.00,,,0.00,Wunderground v.1.15,2013-03-09 09:05:00,
2013-03-09 04:15:00,30.1,24.4,30.33,WSW,237,1.0,1.0,79,0.00,,,0.00,Wunderground v.1.15,2013-03-09 09:15:00,
2013-03-09 04:25:00,29.9,24.2,30.33,NE,43,1.0,1.0,79,0.00,,,0.00,Wunderground v.1.15,2013-03-09 09:25:00,
2013-03-09 04:30:00,29.6,24.2,30.33,NNE,32,0.0,0.0,80,0.00,,,0.00,Wunderground v.1.15,2013-03-09 09:30:00,
2013-03-09 04:40:00,29.1,23.7,30.33,NNE,32,0.0,1.0,80,0.00,,,0.00,Wunderground v.1.15,2013-03-09 09:40:00,
2013-03-09 04:50:00,28.6,23.5,30.33,ENE,65,0.0,0.0,81,0.00,,,0.00,Wunderground v.1.15,2013-03-09 09:50:00,
2013-03-09 05:00:00,28.5,23.7,30.33,NNE,31,0.0,0.0,82,0.00,,,0.00,Wunderground v.1.15,2013-03-09 10:00:00,
2013-03-09 05:05:00,28.4,23.6,30.33,NNE,31,0.0,0.0,82,0.00,,,0.00,Wunderground v.1.15,2013-03-09 10:05:00,
2013-03-09 05:15:00,28.1,23.3,30.34,NNE,31,0.0,0.0,82,0.00,,,0.00,Wunderground v.1.15,2013-03-09 10:15:00,
2013-03-09 05:20:00,28.0,23.5,30.34,NNE,31,0.0,0.0,83,0.00,,,0.00,Wunderground v.1.15,2013-03-09 10:20:00,
2013-03-09 05:30:00,27.8,23.3,30.33,NNE,31,0.0,1.0,83,0.00,,,0.00,Wunderground v.1.15,2013-03-09 10:30:00,
2013-03-09 05:40:00,27.5,23.0,30.34,NNE,31,0.0,0.0,83,0.00,,,0.00,Wunderground v.1.15,2013-03-09 10:40:00,
2013-03-09 05:45:00,27.3,23.1,30.34,NNE,31,0.0,0.0,84,0.00,,,0.00,Wunderground v.1.15,2013-03-09 10:45:00,
2013-03-09 05:55:00,27.0,22.8,30.34,NNE,31,0.0,0.0,84,0.00,,,0.00,Wunderground v.1.15,2013-03-09 10:55:00,
2013-03-09 06:05:00,26.7,22.8,30.34,NNE,31,0.0,0.0,85,0.00,,,0.00,Wunderground v.1.15,2013-03-09 11:05:00,
2013-03-09 06:15:00,26.4,22.5,30.34,NNE,31,0.0,0.0,85,0.00,,,0.00,Wunderground v.1.15,2013-03-09 11:15:00,
2013-03-09 06:25:00,26.4,22.8,30.34,NNE,31,0.0,0.0,86,0.00,,,0.00,Wunderground v.1.15,2013-03-09 11:25:00,
2013-03-09 06:35:00,26.3,22.7,30.35,NNE,31,0.0,0.0,86,0.00,,,0.00,Wunderground v.1.15,2013-03-09 11:35:00,
2013-03-09 06:45:00,26.1,22.2,30.34,NNE,31,0.0,0.0,85,0.00,,,0.00,Wunderground v.1.15,2013-03-09 11:45:00,
2013-03-09 06:55:00,25.9,22.3,30.35,NNE,31,0.0,2.0,86,0.00,,,0.00,Wunderground v.1.15,2013-03-09 11:55:00,
2013-03-09 07:00:00,25.8,22.2,30.35,NNE,32,0.0,0.0,86,0.00,,,0.00,Wunderground v.1.15,2013-03-09 12:00:00,
2013-03-09 07:05:00,25.8,22.2,30.35,NNE,31,0.0,0.0,86,0.00,,,0.00,Wunderground v.1.15,2013-03-09 12:05:00,
2013-03-09 07:15:00,25.7,22.4,30.35,NNE,31,0.0,0.0,87,0.00,,,0.00,Wunderground v.1.15,2013-03-09 12:15:00,
2013-03-09 07:25:00,25.8,22.5,30.36,NNE,31,0.0,1.0,87,0.00,,,0.00,Wunderground v.1.15,2013-03-09 12:25:00,
2013-03-09 07:30:00,25.9,22.6,30.36,ENE,66,1.0,1.0,87,0.00,,,0.00,Wunderground v.1.15,2013-03-09 12:30:00,
2013-03-09 07:40:00,26.1,22.8,30.37,ENE,66,0.0,0.0,87,0.00,,,0.00,Wunderground v.1.15,2013-03-09 12:40:00,
2013-03-09 07:50:00,26.5,23.2,30.37,ENE,66,0.0,0.0,87,0.00,,,0.00,Wunderground v.1.15,2013-03-09 12:50:00,
2013-03-09 07:55:00,26.7,23.1,30.37,ENE,66,0.0,1.0,86,0.00,,,0.00,Wunderground v.1.15,2013-03-09 12:55:00,
2013-03-09 08:05:00,27.2,23.3,30.38,ENE,66,1.0,1.0,85,0.00,,,0.00,Wunderground v.1.15,2013-03-09 13:05:00,
2013-03-09 08:15:00,27.9,24.0,30.38,ENE,67,1.0,1.0,85,0.00,,,0.00,Wunderground v.1.15,2013-03-09 13:15:00,
2013-03-09 08:25:00,28.7,24.2,30.38,ENE,67,0.0,1.0,83,0.00,,,0.00,Wunderground v.1.15,2013-03-09 13:25:00,
2013-03-09 08:35:00,29.2,24.4,30.38,ENE,67,0.0,0.0,82,0.00,,,0.00,Wunderground v.1.15,2013-03-09 13:35:00,
2013-03-09 08:45:00,30.1,25.0,30.38,East,81,0.0,1.0,81,0.00,,,0.00,Wunderground v.1.15,2013-03-09 13:45:00,
2013-03-09 08:55:00,31.4,25.6,30.38,East,82,0.0,2.0,79,0.00,,,0.00,Wunderground v.1.15,2013-03-09 13:55:00,
2013-03-09 09:05:00,32.3,26.5,30.38,East,82,0.0,0.0,79,0.00,,,0.00,Wunderground v.1.15,2013-03-09 14:05:00,
2013-03-09 09:15:00,33.4,27.0,30.38,SE,137,1.0,1.0,77,0.00,,,0.00,Wunderground v.1.15,2013-03-09 14:15:00,
2013-03-09 09:25:00,34.6,27.5,30.38,ENE,77,1.0,1.0,75,0.00,,,0.00,Wunderground v.1.15,2013-03-09 14:25:00,
2013-03-09 09:35:00,35.9,28.7,30.38,East,87,1.0,2.0,75,0.00,,,0.00,Wunderground v.1.15,2013-03-09 14:35:00,
2013-03-09 09:40:00,36.6,29.1,30.38,East,87,1.0,1.0,74,0.00,,,0.00,Wunderground v.1.15,2013-03-09 14:40:00,
2013-03-09 09:50:00,37.6,28.7,30.37,East,87,1.0,1.0,70,0.00,,,0.00,Wunderground v.1.15,2013-03-09 14:50:00,
2013-03-09 10:00:00,38.6,29.3,30.37,East,87,0.0,1.0,69,0.00,,,0.00,Wunderground v.1.15,2013-03-09 15:00:00,
2013-03-09 10:05:00,39.4,30.1,30.37,East,88,0.0,1.0,69,0.00,,,0.00,Wunderground v.1.15,2013-03-09 15:05:00,
2013-03-09 10:15:00,39.9,29.5,30.37,SSE,164,0.0,3.0,66,0.00,,,0.00,Wunderground v.1.15,2013-03-09 15:15:00,
2013-03-09 10:25:00,40.0,28.4,30.37,South,179,1.0,1.0,63,0.00,,,0.00,Wunderground v.1.15,2013-03-09 15:25:00,
2013-03-09 10:35:00,41.0,29.0,30.37,South,178,1.0,3.0,62,0.00,,,0.00,Wunderground v.1.15,2013-03-09 15:35:00,
2013-03-09 10:45:00,42.2,29.7,30.37,South,177,1.0,2.0,61,0.00,,,0.00,Wunderground v.1.15,2013-03-09 15:45:00,
2013-03-09 10:55:00,42.8,30.3,30.36,South,172,1.0,1.0,61,0.00,,,0.00,Wunderground v.1.15,2013-03-09 15:55:00,
2013-03-09 11:05:00,43.7,30.7,30.36,SW,229,1.0,2.0,60,0.00,,,0.00,Wunderground v.1.15,2013-03-09 16:05:00,
2013-03-09 11:15:00,43.9,31.3,30.36,SSW,210,2.0,4.0,61,0.00,,,0.00,Wunderground v.1.15,2013-03-09 16:15:00,
2013-03-09 11:25:00,44.9,30.1,30.36,South,186,2.0,2.0,56,0.00,,,0.00,Wunderground v.1.15,2013-03-09 16:25:00,
2013-03-09 11:35:00,46.0,31.6,30.35,ESE,120,1.0,1.0,57,0.00,,,0.00,Wunderground v.1.15,2013-03-09 16:35:00,